Time;durP1;ratioP1;P1;durP2;ratioP2;P2;SDS_P1;SDS_P2;PMS_P1;PMS_P2;Temp;Humidity;BMP_temperature;BMP_pressure;BME280_temperature;BME280_humidity;BME280_pressure;Samples;Min_cycle;Max_cycle;Signal;HPM_P1;HPM_P2
2023/08/28 00:00:36;;;;;;;1.30;0.30;;;14.70;99.90;;;;;;5093259;28;20032;-74
2023/08/28 00:03:02;;;;;;;0.28;0.10;;;14.70;99.90;;;;;;5093414;28;20477;-74
2023/08/28 00:05:35;;;;;;;1.58;0.40;;;14.60;99.90;;;;;;5093157;28;20062;-74
2023/08/28 00:08:00;;;;;;;1.40;0.20;;;14.60;99.90;;;;;;5093538;28;20020;-74
2023/08/28 00:10:26;;;;;;;1.48;0.30;;;14.60;99.90;;;;;;5093413;28;20031;-74
2023/08/28 00:12:52;;;;;;;1.85;0.20;;;14.60;99.90;;;;;;5093596;28;20028;-73
2023/08/28 00:15:18;;;;;;;0.30;0.22;;;14.50;99.90;;;;;;5093315;28;20477;-74
2023/08/28 00:17:44;;;;;;;0.60;0.30;;;14.60;99.90;;;;;;5093138;28;20153;-74
2023/08/28 00:20:09;;;;;;;0.65;0.20;;;14.60;99.90;;;;;;5074901;28;20463;-74
2023/08/28 00:22:38;;;;;;;1.02;0.30;;;14.60;99.90;;;;;;5093192;28;20031;-74
2023/08/28 00:25:06;;;;;;;0.52;0.20;;;14.50;99.90;;;;;;5093209;28;20077;-74
2023/08/28 00:27:32;;;;;;;0.10;0.10;;;14.50;99.90;;;;;;5093124;28;20020;-73
2023/08/28 00:29:58;;;;;;;0.40;0.30;;;14.50;99.90;;;;;;5092978;28;20032;-74
2023/08/28 00:32:28;;;;;;;0.50;0.22;;;14.50;99.90;;;;;;5075112;28;20377;-73
2023/08/28 00:34:54;;;;;;;0.35;0.20;;;14.50;99.90;;;;;;5073256;28;20032;-74
2023/08/28 00:37:20;;;;;;;1.10;0.28;;;14.50;99.90;;;;;;5092250;28;20050;-74
2023/08/28 00:39:46;;;;;;;0.30;0.20;;;14.40;99.90;;;;;;5092845;28;20036;-74
2023/08/28 00:42:12;;;;;;;0.25;0.20;;;14.40;99.90;;;;;;5093572;28;20032;-74
2023/08/28 00:44:38;;;;;;;4.30;0.40;;;14.40;99.90;;;;;;5092992;28;20025;-74
2023/08/28 00:47:05;;;;;;;0.75;0.30;;;14.40;99.90;;;;;;5074884;28;20028;-74
2023/08/28 00:49:32;;;;;;;0.47;0.10;;;14.40;99.90;;;;;;5092944;28;20028;-73
2023/08/28 00:51:58;;;;;;;1.90;0.20;;;14.40;99.90;;;;;;5105654;28;20457;-73
2023/08/28 00:54:24;;;;;;;0.30;0.20;;;14.40;99.90;;;;;;5117105;28;20145;-74
2023/08/28 00:56:51;;;;;;;0.63;0.20;;;14.40;99.90;;;;;;5081963;28;20480;-73
2023/08/28 00:59:17;;;;;;;1.20;0.28;;;14.40;99.90;;;;;;5116995;28;20452;-73
2023/08/28 01:01:44;;;;;;;0.28;0.20;;;14.30;99.90;;;;;;5116851;28;20110;-74
2023/08/28 01:04:09;;;;;;;0.45;0.20;;;14.40;99.90;;;;;;5116498;28;20055;-73
2023/08/28 01:07:23;;;;;;;0.15;0.15;;;14.40;99.90;;;;;;5115225;28;20503;-73
2023/08/28 01:10:03;;;;;;;1.20;0.30;;;14.40;99.90;;;;;;5096208;28;20112;-74
2023/08/28 01:13:16;;;;;;;1.02;0.30;;;14.40;99.90;;;;;;5104624;28;20062;-73
2023/08/28 01:15:42;;;;;;;0.57;0.40;;;14.40;99.90;;;;;;5013558;28;20510;-74
2023/08/28 01:18:09;;;;;;;0.40;0.20;;;14.40;99.90;;;;;;5013118;28;20053;-73
2023/08/28 01:20:36;;;;;;;0.45;0.30;;;14.40;99.90;;;;;;5035906;28;20089;-73
2023/08/28 01:23:20;;;;;;;1.15;0.30;;;14.40;99.90;;;;;;5096406;28;20097;-73
2023/08/28 01:25:47;;;;;;;0.77;0.30;;;14.40;99.90;;;;;;5096450;28;20563;-73
2023/08/28 01:28:13;;;;;;;2.08;0.30;;;14.40;99.90;;;;;;5096357;28;20028;-73
2023/08/28 01:30:38;;;;;;;0.70;0.30;;;14.40;99.90;;;;;;5077872;28;20032;-73
2023/08/28 01:33:04;;;;;;;1.40;0.30;;;14.30;99.90;;;;;;5096267;28;20531;-74
2023/08/28 01:35:32;;;;;;;1.98;0.30;;;14.30;99.90;;;;;;5078239;28;20032;-74
2023/08/28 01:37:57;;;;;;;0.75;0.20;;;14.30;99.90;;;;;;5102789;28;20095;-74
2023/08/28 01:40:36;;;;;;;0.77;0.25;;;14.30;99.90;;;;;;5094984;28;20457;-74
2023/08/28 01:43:03;;;;;;;0.75;0.30;;;14.30;99.90;;;;;;5094702;28;20027;-74
2023/08/28 01:45:29;;;;;;;0.43;0.20;;;14.30;99.90;;;;;;5076937;28;20024;-73
2023/08/28 01:47:55;;;;;;;0.40;0.20;;;14.30;99.90;;;;;;5076830;28;20031;-73
2023/08/28 01:50:21;;;;;;;0.20;0.20;;;14.20;99.90;;;;;;5095146;28;20024;-73
2023/08/28 01:52:46;;;;;;;1.23;0.38;;;14.20;99.90;;;;;;5095546;28;20035;-73
2023/08/28 01:55:12;;;;;;;1.08;0.20;;;14.20;99.90;;;;;;5095513;28;20028;-73
2023/08/28 01:57:38;;;;;;;0.52;0.30;;;14.20;99.90;;;;;;5095560;28;20085;-73
2023/08/28 02:00:04;;;;;;;1.40;0.30;;;14.20;99.90;;;;;;5095686;28;20452;-73
2023/08/28 02:02:29;;;;;;;0.90;0.25;;;14.20;99.90;;;;;;5095714;28;20387;-73
2023/08/28 02:04:55;;;;;;;1.65;0.30;;;14.20;99.90;;;;;;5077156;28;20067;-73
2023/08/28 02:07:20;;;;;;;0.60;0.20;;;14.20;99.90;;;;;;5095581;28;20052;-73
2023/08/28 02:09:47;;;;;;;0.57;0.30;;;14.20;99.90;;;;;;5095208;28;20036;-73
2023/08/28 02:12:13;;;;;;;0.25;0.20;;;14.20;99.90;;;;;;5095824;28;20376;-73
2023/08/28 02:14:38;;;;;;;0.60;0.30;;;14.10;99.90;;;;;;5095236;28;20028;-73
2023/08/28 02:17:04;;;;;;;0.95;0.40;;;14.10;99.90;;;;;;5095131;28;20028;-73
2023/08/28 02:19:30;;;;;;;0.30;0.20;;;14.10;99.90;;;;;;5076957;28;20056;-73
2023/08/28 02:21:55;;;;;;;1.05;0.30;;;14.20;99.90;;;;;;5095050;28;20020;-73
2023/08/28 02:24:21;;;;;;;0.38;0.25;;;14.20;99.90;;;;;;5077080;28;20373;-73
2023/08/28 02:26:46;;;;;;;0.35;0.28;;;14.20;99.90;;;;;;5094971;28;20027;-73
2023/08/28 02:29:12;;;;;;;0.45;0.30;;;14.10;99.90;;;;;;5094890;28;20054;-73
2023/08/28 02:31:38;;;;;;;0.90;0.30;;;14.10;99.90;;;;;;5094759;28;20033;-73
2023/08/28 02:34:03;;;;;;;2.10;0.30;;;14.10;99.90;;;;;;5094790;28;20032;-73
2023/08/28 02:36:29;;;;;;;0.90;0.30;;;14.10;99.90;;;;;;5094777;28;20111;-73
2023/08/28 02:38:55;;;;;;;0.35;0.20;;;14.10;99.90;;;;;;5094631;28;20037;-73
2023/08/28 02:41:20;;;;;;;0.40;0.20;;;14.00;99.90;;;;;;5076461;28;20028;-73
2023/08/28 02:43:46;;;;;;;2.95;0.30;;;14.10;99.90;;;;;;5077103;28;20031;-73
2023/08/28 02:46:12;;;;;;;1.55;0.32;;;14.00;99.90;;;;;;5094729;28;20517;-73
2023/08/28 02:48:37;;;;;;;1.23;0.30;;;14.00;99.90;;;;;;5094515;28;20107;-73
2023/08/28 02:51:03;;;;;;;0.80;0.30;;;14.00;99.90;;;;;;5094465;28;20030;-73
2023/08/28 02:53:29;;;;;;;1.27;0.30;;;14.00;99.90;;;;;;5094284;28;20064;-74
2023/08/28 02:56:16;;;;;;;0.75;0.30;;;14.00;99.90;;;;;;5094841;28;20388;-73
2023/08/28 02:58:42;;;;;;;0.68;0.30;;;14.00;99.90;;;;;;5114286;28;20069;-73
2023/08/28 03:01:08;;;;;;;1.42;0.20;;;14.00;99.90;;;;;;5114680;28;20027;-74
2023/08/28 03:03:34;;;;;;;0.52;0.28;;;14.00;99.90;;;;;;5096817;28;20492;-73
2023/08/28 03:06:01;;;;;;;0.75;0.32;;;14.00;99.90;;;;;;5114638;28;20081;-73
2023/08/28 03:08:28;;;;;;;0.43;0.30;;;14.00;99.90;;;;;;5114553;28;20020;-73
2023/08/28 03:10:54;;;;;;;0.82;0.38;;;14.00;99.90;;;;;;5114745;28;20077;-74
2023/08/28 03:13:20;;;;;;;0.85;0.30;;;14.00;99.90;;;;;;5114726;28;20032;-73
2023/08/28 03:15:46;;;;;;;0.82;0.30;;;14.00;99.90;;;;;;5114318;28;20106;-73
2023/08/28 03:18:11;;;;;;;0.88;0.30;;;14.00;99.90;;;;;;5114501;28;20369;-73
2023/08/28 03:20:37;;;;;;;1.00;0.22;;;14.00;99.90;;;;;;5114512;28;20056;-73
2023/08/28 03:23:03;;;;;;;0.60;0.30;;;13.90;99.90;;;;;;5114495;28;20034;-73
2023/08/28 03:25:28;;;;;;;0.47;0.28;;;14.00;99.90;;;;;;5114276;28;20016;-74
2023/08/28 03:27:54;;;;;;;0.80;0.40;;;13.90;99.90;;;;;;5114696;28;20373;-74
2023/08/28 03:30:20;;;;;;;2.10;0.35;;;13.90;99.90;;;;;;5095984;28;20113;-74
2023/08/28 03:32:45;;;;;;;0.70;0.40;;;13.90;99.90;;;;;;5114193;28;20422;-74
2023/08/28 03:35:11;;;;;;;2.80;0.40;;;13.90;99.90;;;;;;5114424;28;20035;-74
2023/08/28 03:37:37;;;;;;;0.73;0.50;;;13.90;99.90;;;;;;5114173;28;20035;-74
2023/08/28 03:40:04;;;;;;;2.63;0.40;;;13.90;99.90;;;;;;5114137;28;20020;-74
2023/08/28 03:42:29;;;;;;;1.08;0.40;;;13.90;99.90;;;;;;5096154;28;20050;-74
2023/08/28 03:44:55;;;;;;;1.20;0.55;;;13.90;99.90;;;;;;5114019;28;20052;-73
2023/08/28 03:47:21;;;;;;;0.95;0.40;;;13.90;99.90;;;;;;5114267;28;20027;-74
2023/08/28 03:49:46;;;;;;;0.68;0.30;;;13.90;99.90;;;;;;5114929;28;20030;-74
2023/08/28 03:52:12;;;;;;;1.10;0.30;;;13.90;99.90;;;;;;5114047;28;20103;-74
2023/08/28 03:54:37;;;;;;;0.68;0.30;;;13.80;99.90;;;;;;5113960;28;20403;-74
2023/08/28 03:57:03;;;;;;;0.77;0.32;;;13.80;99.90;;;;;;5113908;28;20395;-74
2023/08/28 03:59:29;;;;;;;0.60;0.30;;;13.80;99.90;;;;;;5113954;28;20138;-74
2023/08/28 04:01:55;;;;;;;0.70;0.30;;;13.90;99.90;;;;;;5114156;28;20028;-74
2023/08/28 04:04:20;;;;;;;0.65;0.30;;;13.90;99.90;;;;;;5114070;28;20103;-74
2023/08/28 04:06:48;;;;;;;1.25;0.40;;;14.00;99.90;;;;;;5113811;28;20024;-74
2023/08/28 04:09:14;;;;;;;0.63;0.35;;;13.90;99.90;;;;;;5095575;28;20081;-74
2023/08/28 04:11:40;;;;;;;1.00;0.32;;;14.00;99.90;;;;;;5095663;28;20027;-74
2023/08/28 04:14:06;;;;;;;0.73;0.30;;;14.00;99.90;;;;;;5095513;28;20433;-74
2023/08/28 04:16:32;;;;;;;0.93;0.57;;;14.00;99.90;;;;;;5113734;28;20036;-74
2023/08/28 04:18:58;;;;;;;0.98;0.50;;;14.00;99.90;;;;;;5113812;28;20464;-74
2023/08/28 04:21:23;;;;;;;1.50;0.40;;;14.00;99.90;;;;;;5113581;28;20032;-73
2023/08/28 04:23:49;;;;;;;2.13;0.40;;;14.00;99.90;;;;;;5113640;28;20035;-74
2023/08/28 04:26:15;;;;;;;0.98;0.30;;;13.90;99.90;;;;;;5113704;28;20494;-73
2023/08/28 04:28:40;;;;;;;1.38;0.63;;;13.90;99.90;;;;;;5117027;28;20030;-74
2023/08/28 04:31:09;;;;;;;2.20;0.43;;;13.90;99.90;;;;;;5117662;28;20019;-74
2023/08/28 04:33:34;;;;;;;1.50;0.60;;;13.90;99.90;;;;;;5117933;28;20023;-74
2023/08/28 04:36:00;;;;;;;1.10;0.60;;;13.90;99.90;;;;;;5117581;28;20024;-73
2023/08/28 04:38:26;;;;;;;2.35;0.45;;;13.80;99.90;;;;;;5099273;28;20027;-74
2023/08/28 04:40:51;;;;;;;1.40;0.47;;;13.70;99.90;;;;;;5099241;28;20028;-74
2023/08/28 04:43:17;;;;;;;1.45;0.70;;;13.70;99.90;;;;;;5117443;28;20024;-74
2023/08/28 04:45:43;;;;;;;21.85;14.55;;;13.70;99.90;;;;;;5099190;28;20028;-73
2023/08/28 04:48:08;;;;;;;20.67;13.73;;;13.70;99.90;;;;;;5117585;28;20026;-73
2023/08/28 04:50:34;;;;;;;5.95;4.72;;;13.70;99.90;;;;;;5117791;28;20024;-73
2023/08/28 04:52:59;;;;;;;23.27;14.20;;;13.70;99.90;;;;;;5116682;28;20480;-74
2023/08/28 04:55:25;;;;;;;12.52;8.27;;;13.70;99.90;;;;;;5117322;28;20035;-73
2023/08/28 04:57:51;;;;;;;4.50;2.22;;;13.70;99.90;;;;;;5117166;28;20020;-74
2023/08/28 05:00:17;;;;;;;1.40;0.50;;;13.70;99.90;;;;;;5117067;28;20074;-73
2023/08/28 05:02:42;;;;;;;0.93;0.50;;;13.80;99.90;;;;;;5099040;28;20023;-73
2023/08/28 05:05:08;;;;;;;1.35;0.40;;;13.70;99.90;;;;;;5116619;28;20032;-74
2023/08/28 05:07:33;;;;;;;0.77;0.35;;;13.70;99.90;;;;;;5117110;28;20120;-74
2023/08/28 05:10:00;;;;;;;0.63;0.30;;;13.70;99.90;;;;;;5116797;28;20115;-73
2023/08/28 05:12:25;;;;;;;0.93;0.32;;;13.70;99.90;;;;;;5116873;28;20484;-73
2023/08/28 05:14:51;;;;;;;0.73;0.43;;;13.70;99.90;;;;;;5116830;28;20043;-74
2023/08/28 05:17:17;;;;;;;1.75;0.55;;;13.70;99.90;;;;;;5116839;28;20024;-74
2023/08/28 05:19:42;;;;;;;7.82;4.03;;;13.70;99.90;;;;;;5116855;28;20038;-74
2023/08/28 05:22:08;;;;;;;6.07;3.63;;;13.70;99.90;;;;;;5116686;28;20468;-74
2023/08/28 05:24:33;;;;;;;3.70;1.45;;;13.70;99.90;;;;;;5117326;28;20464;-74
2023/08/28 05:26:59;;;;;;;1.40;0.60;;;13.70;99.90;;;;;;5117111;28;20410;-74
2023/08/28 05:29:25;;;;;;;1.20;0.60;;;13.60;99.90;;;;;;5115934;28;20549;-74
2023/08/28 05:31:50;;;;;;;1.65;0.60;;;13.60;99.90;;;;;;5116439;28;20034;-74
2023/08/28 05:34:16;;;;;;;1.35;0.70;;;13.60;99.90;;;;;;5116439;28;20031;-74
2023/08/28 05:36:42;;;;;;;1.27;0.63;;;13.50;99.90;;;;;;5116364;28;20103;-74
2023/08/28 05:39:07;;;;;;;17.17;9.48;;;13.50;99.90;;;;;;5115856;28;20024;-74
2023/08/28 05:41:33;;;;;;;11.25;6.35;;;13.50;99.90;;;;;;5116077;28;20051;-74
2023/08/28 05:43:59;;;;;;;3.72;1.85;;;13.60;99.90;;;;;;5116097;28;20032;-74
2023/08/28 05:46:24;;;;;;;1.95;0.70;;;13.60;99.90;;;;;;5116257;28;20070;-74
2023/08/28 05:48:50;;;;;;;1.55;0.70;;;13.60;99.90;;;;;;5097935;28;20069;-74
2023/08/28 05:51:16;;;;;;;1.65;0.70;;;13.50;99.90;;;;;;5116134;28;20061;-74
2023/08/28 05:53:41;;;;;;;2.35;0.90;;;13.60;99.90;;;;;;5116173;28;20036;-74
2023/08/28 05:56:07;;;;;;;3.17;0.63;;;13.60;99.90;;;;;;5116059;28;20034;-74
2023/08/28 05:58:33;;;;;;;6.68;2.55;;;13.60;99.90;;;;;;5115988;28;20104;-74
2023/08/28 06:00:58;;;;;;;5.10;1.77;;;13.60;99.90;;;;;;5097547;28;20046;-74
2023/08/28 06:03:24;;;;;;;24.00;8.18;;;13.60;99.90;;;;;;5115959;28;20055;-75
2023/08/28 06:05:50;;;;;;;21.33;10.07;;;13.60;99.90;;;;;;5115922;28;20027;-74
2023/08/28 06:08:16;;;;;;;4.93;2.78;;;13.60;99.90;;;;;;5114960;27;20082;-74
2023/08/28 06:10:42;;;;;;;1.77;0.73;;;13.60;99.90;;;;;;5095552;28;20032;-74
2023/08/28 06:13:08;;;;;;;1.60;0.50;;;13.60;99.90;;;;;;5094390;28;20035;-74
2023/08/28 06:15:34;;;;;;;2.33;0.50;;;13.60;99.90;;;;;;5094848;28;20024;-74
2023/08/28 06:18:00;;;;;;;1.80;0.50;;;13.50;99.90;;;;;;5096203;27;20455;-75
2023/08/28 06:20:26;;;;;;;1.50;0.40;;;13.40;99.90;;;;;;5115070;28;20103;-75
2023/08/28 06:22:52;;;;;;;1.48;0.57;;;13.40;99.90;;;;;;5115576;28;20024;-74
2023/08/28 06:25:18;;;;;;;0.98;0.30;;;13.40;99.90;;;;;;5115335;28;20115;-75
2023/08/28 06:27:43;;;;;;;0.95;0.40;;;13.40;99.90;;;;;;5094664;28;20033;-74
2023/08/28 06:30:10;;;;;;;1.08;0.40;;;13.40;99.90;;;;;;5115387;28;20028;-75
2023/08/28 06:32:35;;;;;;;2.90;0.30;;;13.50;99.90;;;;;;5097208;28;20076;-74
2023/08/28 06:35:01;;;;;;;2.58;0.50;;;13.40;99.90;;;;;;5115711;28;20395;-75
2023/08/28 06:37:27;;;;;;;1.27;0.60;;;13.50;99.90;;;;;;5115600;28;20020;-75
2023/08/28 06:39:53;;;;;;;1.65;0.30;;;13.50;99.90;;;;;;5115047;28;20110;-74
2023/08/28 06:42:19;;;;;;;2.50;0.50;;;13.50;99.90;;;;;;5097146;28;20104;-74
2023/08/28 06:44:44;;;;;;;0.63;0.35;;;13.50;99.90;;;;;;5115536;28;20023;-74
2023/08/28 06:47:10;;;;;;;0.85;0.30;;;13.50;99.90;;;;;;5114581;28;20518;-75
2023/08/28 06:49:36;;;;;;;0.32;0.13;;;13.50;99.90;;;;;;5095846;28;20503;-74
2023/08/28 06:52:03;;;;;;;1.05;0.20;;;13.50;99.90;;;;;;5115893;28;20054;-72
2023/08/28 06:54:29;;;;;;;1.70;0.40;;;13.50;99.90;;;;;;5114991;28;20035;-72
2023/08/28 06:56:55;;;;;;;2.65;0.50;;;13.50;99.90;;;;;;5115064;28;20135;-72
2023/08/28 06:59:21;;;;;;;0.70;0.30;;;13.40;99.90;;;;;;5097362;28;20036;-72
2023/08/28 07:01:46;;;;;;;1.30;0.10;;;13.50;99.90;;;;;;5114841;28;20019;-72
2023/08/28 07:04:12;;;;;;;1.35;0.30;;;13.50;99.90;;;;;;5114798;28;20028;-72
2023/08/28 07:06:38;;;;;;;1.77;0.20;;;13.50;99.90;;;;;;5114823;28;20069;-71
2023/08/28 07:09:04;;;;;;;0.20;0.20;;;13.40;99.90;;;;;;5116579;28;20034;-71
2023/08/28 07:11:29;;;;;;;0.65;0.10;;;13.50;99.90;;;;;;5098799;28;20040;-71
2023/08/28 07:13:55;;;;;;;0.52;0.38;;;13.50;99.90;;;;;;5117136;28;20036;-72
2023/08/28 07:16:20;;;;;;;1.35;0.63;;;13.50;99.90;;;;;;5116169;28;20031;-74
2023/08/28 07:18:46;;;;;;;0.77;0.30;;;13.50;99.90;;;;;;5098095;28;20103;-72
2023/08/28 07:21:12;;;;;;;0.22;0.10;;;13.50;99.90;;;;;;5114543;28;20063;-72
2023/08/28 07:23:38;;;;;;;0.40;0.20;;;13.50;99.90;;;;;;5114660;28;20031;-72
2023/08/28 07:26:03;;;;;;;0.43;0.20;;;13.60;99.90;;;;;;5114372;28;20053;-72
2023/08/28 07:28:30;;;;;;;0.20;0.20;;;13.50;99.90;;;;;;5114216;28;20415;-73
2023/08/28 07:30:57;;;;;;;1.10;0.25;;;13.60;99.90;;;;;;5114352;28;20070;-73
2023/08/28 07:33:23;;;;;;;0.77;0.35;;;13.50;99.90;;;;;;5114277;28;20023;-72
2023/08/28 07:35:49;;;;;;;0.85;0.20;;;13.50;99.90;;;;;;5114587;28;20088;-73
2023/08/28 07:38:15;;;;;;;0.20;0.20;;;13.50;99.90;;;;;;5114328;28;20035;-72
2023/08/28 07:40:40;;;;;;;0.10;0.10;;;13.40;99.90;;;;;;5114199;28;20593;-74
2023/08/28 07:43:06;;;;;;;0.30;0.10;;;13.40;99.90;;;;;;5095869;28;20053;-73
2023/08/28 07:45:32;;;;;;;0.20;0.20;;;13.50;99.90;;;;;;5096180;28;20058;-71
2023/08/28 07:47:59;;;;;;;0.50;0.32;;;13.50;99.90;;;;;;5114413;28;20020;-71
2023/08/28 07:50:26;;;;;;;0.10;0.10;;;13.50;99.90;;;;;;5114044;28;20031;-72
2023/08/28 07:52:51;;;;;;;0.25;0.10;;;13.60;99.90;;;;;;5113918;28;20076;-72
2023/08/28 07:55:17;;;;;;;0.10;0.10;;;13.70;99.90;;;;;;5114158;28;20032;-72
2023/08/28 07:57:43;;;;;;;0.50;0.30;;;13.70;99.90;;;;;;5114591;28;20032;-72
2023/08/28 08:00:13;;;;;;;0.00;0.00;;;13.70;99.90;;;;;;5114230;28;20030;-72
2023/08/28 08:02:40;;;;;;;0.52;0.10;;;13.70;99.90;;;;;;5101633;28;20503;-72
2023/08/28 08:05:08;;;;;;;0.10;0.10;;;13.80;99.90;;;;;;5120757;28;20030;-72
2023/08/28 08:07:34;;;;;;;0.30;0.20;;;13.80;99.90;;;;;;5120690;28;20051;-72
2023/08/28 08:10:00;;;;;;;0.65;0.30;;;13.70;99.90;;;;;;5120588;28;20042;-72
2023/08/28 08:12:28;;;;;;;1.25;0.35;;;13.60;99.90;;;;;;5102408;28;20122;-72
2023/08/28 08:14:54;;;;;;;1.17;0.50;;;13.50;99.90;;;;;;5120957;28;20373;-72
2023/08/28 08:17:19;;;;;;;0.73;0.22;;;13.40;99.90;;;;;;5120536;28;20042;-71
2023/08/28 08:19:45;;;;;;;1.35;0.47;;;13.30;99.90;;;;;;5120335;28;20140;-71
2023/08/28 08:22:11;;;;;;;0.43;0.20;;;13.30;99.90;;;;;;5120525;28;20031;-72
2023/08/28 08:24:37;;;;;;;0.55;0.17;;;13.20;99.90;;;;;;5120346;28;20015;-71
2023/08/28 08:27:03;;;;;;;0.55;0.20;;;13.20;99.90;;;;;;5082559;28;20380;-71
2023/08/28 08:29:29;;;;;;;0.43;0.15;;;13.10;99.90;;;;;;5100256;28;20024;-72
2023/08/28 08:31:55;;;;;;;0.45;0.22;;;13.10;99.90;;;;;;5100060;28;20491;-71
2023/08/28 08:34:20;;;;;;;1.02;0.20;;;13.10;99.90;;;;;;5107919;28;20031;-71
2023/08/28 08:36:46;;;;;;;0.82;0.20;;;13.00;99.90;;;;;;5120379;28;20123;-69
2023/08/28 08:39:11;;;;;;;0.40;0.20;;;13.00;99.90;;;;;;5102350;28;20027;-71
2023/08/28 08:41:39;;;;;;;0.82;0.43;;;13.00;99.90;;;;;;5120231;28;20040;-71
2023/08/28 08:44:05;;;;;;;0.65;0.30;;;12.90;99.90;;;;;;5120739;28;20426;-71
2023/08/28 08:46:32;;;;;;;0.47;0.20;;;12.90;99.90;;;;;;5120387;28;20020;-72
2023/08/28 08:49:00;;;;;;;0.80;0.30;;;12.90;99.90;;;;;;5120270;28;20034;-72
2023/08/28 08:51:30;;;;;;;0.13;0.10;;;13.00;99.90;;;;;;5120214;28;20069;-72
2023/08/28 08:54:36;;;;;;;1.48;0.22;;;13.00;99.90;;;;;;5119997;28;20087;-72
2023/08/28 08:57:08;;;;;;;2.50;0.30;;;13.10;99.90;;;;;;5059432;28;20051;-72
2023/08/28 08:59:34;;;;;;;1.20;0.30;;;13.10;99.90;;;;;;5117844;28;20028;-72
2023/08/28 09:02:02;;;;;;;0.88;0.43;;;13.20;99.90;;;;;;5100486;28;20399;-72
2023/08/28 09:04:30;;;;;;;0.73;0.40;;;13.30;99.90;;;;;;5101167;28;20160;-72
2023/08/28 09:06:58;;;;;;;1.92;0.30;;;13.30;99.90;;;;;;5120395;28;20029;-72
2023/08/28 09:09:24;;;;;;;0.90;0.50;;;13.30;99.90;;;;;;5119482;28;20031;-72
2023/08/28 09:11:49;;;;;;;0.88;0.43;;;13.40;99.90;;;;;;5120432;28;20043;-72
2023/08/28 09:14:16;;;;;;;0.90;0.35;;;13.40;99.90;;;;;;5116373;28;20035;-72
2023/08/28 09:16:41;;;;;;;1.77;0.77;;;13.40;99.90;;;;;;5116881;28;20031;-71
2023/08/28 09:19:08;;;;;;;1.35;0.40;;;13.40;99.90;;;;;;5116947;28;20024;-71
2023/08/28 09:21:37;;;;;;;1.45;0.68;;;13.50;99.90;;;;;;5098458;28;20024;-71
2023/08/28 09:24:08;;;;;;;0.30;0.30;;;13.60;99.90;;;;;;5116665;28;20537;-71
2023/08/28 09:26:37;;;;;;;1.98;0.30;;;13.70;99.90;;;;;;5116687;28;20020;-71
2023/08/28 09:29:06;;;;;;;0.45;0.20;;;13.80;99.90;;;;;;5116898;28;20024;-71
2023/08/28 09:31:36;;;;;;;0.98;0.40;;;13.80;99.90;;;;;;5116597;28;20026;-71
2023/08/28 09:34:03;;;;;;;1.67;0.30;;;13.90;99.90;;;;;;5117103;28;20390;-71
2023/08/28 09:36:36;;;;;;;0.65;0.30;;;13.90;99.90;;;;;;5117008;28;20115;-71
2023/08/28 09:39:04;;;;;;;1.38;0.30;;;13.90;99.90;;;;;;5116341;28;20471;-71
2023/08/28 09:41:38;;;;;;;2.13;0.28;;;13.90;99.90;;;;;;5116295;28;20030;-72
2023/08/28 09:44:04;;;;;;;0.65;0.30;;;13.90;99.90;;;;;;5116596;28;20015;-71
2023/08/28 09:46:30;;;;;;;0.25;0.15;;;13.90;99.90;;;;;;5097936;28;20118;-71
2023/08/28 09:48:57;;;;;;;0.10;0.10;;;13.90;99.90;;;;;;5098736;28;20059;-71
2023/08/28 09:51:36;;;;;;;0.00;0.00;;;14.00;99.90;;;;;;5116127;28;20020;-72
2023/08/28 09:54:04;;;;;;;0.00;0.00;;;14.10;99.90;;;;;;5116415;28;20407;-71
2023/08/28 09:56:31;;;;;;;0.20;0.10;;;14.20;99.90;;;;;;5116073;28;20484;-71
2023/08/28 09:59:01;;;;;;;0.38;0.17;;;14.20;99.90;;;;;;5115915;28;20216;-71
2023/08/28 10:01:33;;;;;;;3.10;0.10;;;14.30;99.90;;;;;;5115785;28;20030;-72
2023/08/28 10:04:02;;;;;;;0.32;0.10;;;14.40;99.90;;;;;;5097840;28;20026;-72
2023/08/28 10:06:33;;;;;;;0.13;0.10;;;14.40;99.90;;;;;;5115746;28;20016;-71
2023/08/28 10:09:05;;;;;;;0.22;0.20;;;14.50;99.90;;;;;;5115863;28;20116;-73
2023/08/28 10:11:37;;;;;;;0.32;0.10;;;14.60;99.90;;;;;;5115586;28;20111;-74
2023/08/28 10:14:04;;;;;;;0.10;0.00;;;14.60;99.90;;;;;;5115660;28;20102;-74
2023/08/28 10:16:33;;;;;;;0.00;0.00;;;14.60;99.90;;;;;;5115272;28;20036;-74
2023/08/28 10:19:08;;;;;;;0.10;0.00;;;14.70;99.90;;;;;;5115418;28;20024;-72
2023/08/28 10:21:35;;;;;;;0.00;0.00;;;14.70;99.90;;;;;;5115502;28;20019;-71
2023/08/28 10:24:02;;;;;;;0.00;0.00;;;14.70;99.90;;;;;;5097061;28;20024;-71
2023/08/28 10:26:29;;;;;;;0.20;0.00;;;14.80;99.90;;;;;;5130307;27;20020;-71
2023/08/28 10:28:55;;;;;;;0.00;0.00;;;14.70;99.90;;;;;;5136280;27;20114;-71
2023/08/28 10:31:22;;;;;;;0.85;0.00;;;14.70;99.90;;;;;;5123734;27;20027;-72
2023/08/28 10:33:49;;;;;;;0.00;0.00;;;14.70;99.90;;;;;;5113327;28;20023;-71
2023/08/28 10:36:17;;;;;;;0.55;0.20;;;14.70;99.90;;;;;;5093427;28;20027;-72
2023/08/28 10:38:44;;;;;;;0.45;0.20;;;14.70;99.90;;;;;;5108022;28;20050;-72
2023/08/28 10:41:11;;;;;;;1.25;0.20;;;14.70;99.90;;;;;;5113237;28;20023;-72
2023/08/28 10:43:38;;;;;;;0.40;0.20;;;14.60;99.90;;;;;;5113023;28;20016;-72
2023/08/28 10:46:04;;;;;;;0.60;0.30;;;14.60;99.90;;;;;;5113586;28;20031;-72
2023/08/28 10:48:30;;;;;;;0.30;0.20;;;14.60;99.90;;;;;;5116819;27;20031;-72
2023/08/28 10:50:59;;;;;;;1.17;0.15;;;14.50;99.90;;;;;;5114722;28;20032;-71
2023/08/28 10:53:26;;;;;;;0.40;0.10;;;14.50;99.90;;;;;;5096536;28;20036;-72
2023/08/28 10:55:58;;;;;;;0.32;0.17;;;14.50;99.90;;;;;;5114933;28;20426;-72
2023/08/28 10:58:28;;;;;;;0.50;0.20;;;14.50;99.90;;;;;;5115046;28;20030;-72
2023/08/28 11:01:17;;;;;;;0.98;0.15;;;14.50;99.90;;;;;;5114709;28;20434;-72
2023/08/28 11:03:53;;;;;;;0.98;0.20;;;14.50;99.90;;;;;;5114624;28;20024;-71
2023/08/28 11:06:43;;;;;;;1.25;0.20;;;14.50;99.90;;;;;;5114870;28;20015;-71
2023/08/28 11:09:30;;;;;;;0.43;0.20;;;14.50;99.90;;;;;;5114972;28;20560;-71
2023/08/28 11:11:58;;;;;;;0.30;0.20;;;14.50;99.90;;;;;;5112557;28;20031;-72
2023/08/28 11:14:38;;;;;;;0.60;0.20;;;14.40;99.90;;;;;;5112515;28;20096;-71
2023/08/28 11:17:17;;;;;;;0.35;0.30;;;14.40;99.90;;;;;;5112685;28;20015;-72
2023/08/28 11:19:54;;;;;;;0.95;0.20;;;14.40;99.90;;;;;;5112216;28;20020;-72
2023/08/28 11:22:35;;;;;;;1.73;0.40;;;14.40;99.90;;;;;;5112479;28;20444;-71
2023/08/28 11:25:12;;;;;;;0.47;0.10;;;14.40;99.90;;;;;;5112117;28;20020;-71
2023/08/28 11:27:45;;;;;;;0.45;0.20;;;14.40;99.90;;;;;;5112799;28;20277;-71
2023/08/28 11:30:16;;;;;;;0.43;0.20;;;14.40;99.90;;;;;;5113117;28;20027;-71
2023/08/28 11:32:44;;;;;;;0.60;0.20;;;14.40;99.90;;;;;;5114072;28;20026;-71
2023/08/28 11:35:16;;;;;;;1.38;0.40;;;14.40;99.90;;;;;;5114142;28;20039;-71
2023/08/28 11:37:52;;;;;;;0.30;0.22;;;14.30;99.90;;;;;;5095636;28;20472;-71
2023/08/28 11:40:25;;;;;;;0.57;0.25;;;14.30;99.90;;;;;;5114172;28;20038;-71
2023/08/28 11:43:06;;;;;;;1.35;0.30;;;14.30;99.90;;;;;;5096354;28;20027;-71
2023/08/28 11:45:32;;;;;;;0.60;0.20;;;14.30;99.90;;;;;;5114117;28;20069;-71
2023/08/28 11:48:05;;;;;;;0.85;0.30;;;14.30;99.90;;;;;;5114374;28;20023;-71
2023/08/28 11:50:31;;;;;;;0.60;0.30;;;14.20;99.90;;;;;;5113949;28;20027;-71
2023/08/28 11:52:56;;;;;;;1.35;0.40;;;14.20;99.90;;;;;;5095615;28;20050;-71
2023/08/28 11:55:22;;;;;;;0.70;0.28;;;14.20;99.90;;;;;;5096174;28;20043;-71
2023/08/28 11:57:51;;;;;;;2.30;0.30;;;14.20;99.90;;;;;;5113920;28;20028;-71
2023/08/28 12:00:17;;;;;;;0.52;0.30;;;14.20;99.90;;;;;;5113727;28;20023;-71
2023/08/28 12:02:47;;;;;;;0.65;0.30;;;14.20;99.90;;;;;;5113881;28;20089;-71
2023/08/28 12:05:16;;;;;;;1.10;0.25;;;14.20;99.90;;;;;;5113794;28;20137;-71
2023/08/28 12:07:43;;;;;;;0.50;0.30;;;14.20;99.90;;;;;;5114488;28;20022;-71
2023/08/28 12:10:10;;;;;;;1.85;0.50;;;14.20;99.90;;;;;;5114191;28;20024;-71
2023/08/28 12:12:38;;;;;;;1.13;0.40;;;14.20;99.90;;;;;;5113843;28;20027;-71
2023/08/28 12:15:04;;;;;;;0.32;0.20;;;14.10;99.90;;;;;;5113834;28;20104;-71
2023/08/28 12:17:31;;;;;;;0.93;0.40;;;14.10;99.90;;;;;;5095365;28;20499;-71
2023/08/28 12:19:57;;;;;;;0.73;0.40;;;14.10;99.90;;;;;;5113852;28;20081;-71
2023/08/28 12:22:25;;;;;;;0.80;0.40;;;14.00;99.90;;;;;;5113395;28;20023;-71
2023/08/28 12:24:51;;;;;;;1.02;0.57;;;14.00;99.90;;;;;;5113478;28;20035;-71
2023/08/28 12:27:27;;;;;;;1.20;0.50;;;14.00;99.90;;;;;;5113490;28;20032;-71
2023/08/28 12:29:55;;;;;;;0.90;0.57;;;13.90;99.90;;;;;;5113334;28;20024;-71
2023/08/28 12:32:21;;;;;;;1.40;0.50;;;13.90;99.90;;;;;;5113508;28;20030;-71
2023/08/28 12:34:48;;;;;;;1.10;0.50;;;13.90;99.90;;;;;;5113324;28;20024;-72
2023/08/28 12:37:15;;;;;;;1.60;0.47;;;13.90;99.90;;;;;;5113447;28;20487;-72
2023/08/28 12:39:49;;;;;;;1.02;0.40;;;13.90;99.90;;;;;;5113145;28;20031;-72
2023/08/28 12:42:17;;;;;;;1.25;0.50;;;13.90;99.90;;;;;;5113448;28;20102;-72
2023/08/28 12:44:44;;;;;;;1.13;0.40;;;13.90;99.90;;;;;;5113099;28;20034;-71
2023/08/28 12:47:20;;;;;;;0.80;0.40;;;13.90;99.90;;;;;;5113210;28;20126;-71